sensor_id;sensor_type;location;lat;lon;timestamp;temperature;humidity
8557;DHT22;4316;53.840;10.762;2022-10-29T00:00:26;16.30;99.90
8557;DHT22;4316;53.840;10.762;2022-10-29T00:02:51;16.20;99.90
8557;DHT22;4316;53.840;10.762;2022-10-29T00:05:17;16.20;99.90
8557;DHT22;4316;53.840;10.762;2022-10-29T00:07:43;16.20;99.90
8557;DHT22;4316;53.840;10.762;2022-10-29T00:10:09;16.20;99.90
8557;DHT22;4316;53.840;10.762;2022-10-29T00:12:34;16.20;99.90
8557;DHT22;4316;53.840;10.762;2022-10-29T00:15:01;16.20;99.90
8557;DHT22;4316;53.840;10.762;2022-10-29T00:17:27;16.10;99.90
8557;DHT22;4316;53.840;10.762;2022-10-29T00:19:53;16.20;99.90
8557;DHT22;4316;53.840;10.762;2022-10-29T00:22:18;16.10;99.90
8557;DHT22;4316;53.840;10.762;2022-10-29T00:24:44;16.00;99.90
8557;DHT22;4316;53.840;10.762;2022-10-29T00:27:10;16.00;99.90
8557;DHT22;4316;53.840;10.762;2022-10-29T00:29:36;16.00;99.90
8557;DHT22;4316;53.840;10.762;2022-10-29T00:32:01;16.00;99.90
8557;DHT22;4316;53.840;10.762;2022-10-29T00:34:28;16.00;99.90
8557;DHT22;4316;53.840;10.762;2022-10-29T00:36:53;16.10;99.90
8557;DHT22;4316;53.840;10.762;2022-10-29T00:39:19;16.00;99.90
8557;DHT22;4316;53.840;10.762;2022-10-29T00:41:45;16.00;99.90
8557;DHT22;4316;53.840;10.762;2022-10-29T00:46:47;15.90;99.90
8557;DHT22;4316;53.840;10.762;2022-10-29T00:49:14;15.80;99.90
8557;DHT22;4316;53.840;10.762;2022-10-29T00:51:41;15.80;99.90
8557;DHT22;4316;53.840;10.762;2022-10-29T00:54:09;15.80;99.90
8557;DHT22;4316;53.840;10.762;2022-10-29T00:56:39;15.80;99.90
8557;DHT22;4316;53.840;10.762;2022-10-29T00:59:10;15.80;99.90
8557;DHT22;4316;53.840;10.762;2022-10-29T01:01:37;15.70;99.90
8557;DHT22;4316;53.840;10.762;2022-10-29T01:04:04;15.70;99.90
8557;DHT22;4316;53.840;10.762;2022-10-29T01:06:31;15.70;99.90
8557;DHT22;4316;53.840;10.762;2022-10-29T01:08:57;15.70;99.90
8557;DHT22;4316;53.840;10.762;2022-10-29T01:15:31;15.60;99.90
8557;DHT22;4316;53.840;10.762;2022-10-29T01:20:52;15.60;99.90
8557;DHT22;4316;53.840;10.762;2022-10-29T01:29:16;15.60;99.90
8557;DHT22;4316;53.840;10.762;2022-10-29T01:31:52;15.50;99.90
8557;DHT22;4316;53.840;10.762;2022-10-29T01:40:06;15.40;99.90
8557;DHT22;4316;53.840;10.762;2022-10-29T01:45:36;15.40;99.90
8557;DHT22;4316;53.840;10.762;2022-10-29T01:48:12;15.40;99.90
8557;DHT22;4316;53.840;10.762;2022-10-29T01:50:44;15.30;99.90
8557;DHT22;4316;53.840;10.762;2022-10-29T01:53:11;15.30;99.90
8557;DHT22;4316;53.840;10.762;2022-10-29T01:55:37;15.30;99.90
8557;DHT22;4316;53.840;10.762;2022-10-29T01:58:05;15.30;99.90
8557;DHT22;4316;53.840;10.762;2022-10-29T02:11:24;15.20;99.90
8557;DHT22;4316;53.840;10.762;2022-10-29T02:14:04;15.20;99.90
8557;DHT22;4316;53.840;10.762;2022-10-29T02:16:32;15.20;99.90
8557;DHT22;4316;53.840;10.762;2022-10-29T02:18:59;15.20;99.90
8557;DHT22;4316;53.840;10.762;2022-10-29T02:21:25;15.10;99.90
8557;DHT22;4316;53.840;10.762;2022-10-29T02:23:51;15.10;99.90
8557;DHT22;4316;53.840;10.762;2022-10-29T02:26:17;15.00;99.90
8557;DHT22;4316;53.840;10.762;2022-10-29T02:28:43;15.00;99.90
8557;DHT22;4316;53.840;10.762;2022-10-29T02:31:09;14.90;99.90
8557;DHT22;4316;53.840;10.762;2022-10-29T02:33:35;14.90;99.90
8557;DHT22;4316;53.840;10.762;2022-10-29T02:36:04;15.00;99.90
8557;DHT22;4316;53.840;10.762;2022-10-29T02:38:30;14.90;99.90
8557;DHT22;4316;53.840;10.762;2022-10-29T02:40:59;15.00;99.90
8557;DHT22;4316;53.840;10.762;2022-10-29T02:43:25;15.00;99.90
8557;DHT22;4316;53.840;10.762;2022-10-29T02:46:15;15.00;99.90
8557;DHT22;4316;53.840;10.762;2022-10-29T02:48:42;14.90;99.90
8557;DHT22;4316;53.840;10.762;2022-10-29T02:51:07;14.90;99.90
8557;DHT22;4316;53.840;10.762;2022-10-29T02:53:33;14.90;99.90
8557;DHT22;4316;53.840;10.762;2022-10-29T02:55:59;14.90;99.90
8557;DHT22;4316;53.840;10.762;2022-10-29T02:58:25;14.90;99.90
8557;DHT22;4316;53.840;10.762;2022-10-29T03:00:51;14.90;99.90
8557;DHT22;4316;53.840;10.762;2022-10-29T03:03:17;14.90;99.90
8557;DHT22;4316;53.840;10.762;2022-10-29T03:05:43;14.90;99.90
8557;DHT22;4316;53.840;10.762;2022-10-29T03:08:09;14.90;99.90
8557;DHT22;4316;53.840;10.762;2022-10-29T03:10:34;14.80;99.90
8557;DHT22;4316;53.840;10.762;2022-10-29T03:13:00;14.80;99.90
8557;DHT22;4316;53.840;10.762;2022-10-29T03:15:27;14.80;99.90
8557;DHT22;4316;53.840;10.762;2022-10-29T03:17:52;14.80;99.90
8557;DHT22;4316;53.840;10.762;2022-10-29T03:20:18;14.70;99.90
8557;DHT22;4316;53.840;10.762;2022-10-29T03:22:44;14.70;99.90
8557;DHT22;4316;53.840;10.762;2022-10-29T03:25:14;14.70;99.90
8557;DHT22;4316;53.840;10.762;2022-10-29T03:27:43;14.70;99.90
8557;DHT22;4316;53.840;10.762;2022-10-29T03:30:11;14.80;99.90
8557;DHT22;4316;53.840;10.762;2022-10-29T03:32:45;14.80;99.90
8557;DHT22;4316;53.840;10.762;2022-10-29T03:35:12;14.80;99.90
8557;DHT22;4316;53.840;10.762;2022-10-29T03:37:39;14.70;99.90
8557;DHT22;4316;53.840;10.762;2022-10-29T03:40:06;14.70;99.90
8557;DHT22;4316;53.840;10.762;2022-10-29T03:42:32;14.80;99.90
8557;DHT22;4316;53.840;10.762;2022-10-29T03:44:59;14.70;99.90
8557;DHT22;4316;53.840;10.762;2022-10-29T03:47:25;14.60;99.90
8557;DHT22;4316;53.840;10.762;2022-10-29T03:49:53;14.50;99.90
8557;DHT22;4316;53.840;10.762;2022-10-29T03:52:19;14.40;99.90
8557;DHT22;4316;53.840;10.762;2022-10-29T03:54:45;14.40;99.90
8557;DHT22;4316;53.840;10.762;2022-10-29T03:57:11;14.40;99.90
8557;DHT22;4316;53.840;10.762;2022-10-29T03:59:37;14.40;99.90
8557;DHT22;4316;53.840;10.762;2022-10-29T04:02:03;14.40;99.90
8557;DHT22;4316;53.840;10.762;2022-10-29T04:04:29;14.40;99.90
8557;DHT22;4316;53.840;10.762;2022-10-29T04:06:55;14.30;99.90
8557;DHT22;4316;53.840;10.762;2022-10-29T04:09:21;14.20;99.90
8557;DHT22;4316;53.840;10.762;2022-10-29T04:11:46;14.30;99.90
8557;DHT22;4316;53.840;10.762;2022-10-29T04:14:12;14.30;99.90
8557;DHT22;4316;53.840;10.762;2022-10-29T04:16:41;14.40;99.90
8557;DHT22;4316;53.840;10.762;2022-10-29T04:19:07;14.40;99.90
8557;DHT22;4316;53.840;10.762;2022-10-29T04:21:33;14.50;99.90
8557;DHT22;4316;53.840;10.762;2022-10-29T04:23:58;14.50;99.90
8557;DHT22;4316;53.840;10.762;2022-10-29T04:26:24;14.40;99.90
8557;DHT22;4316;53.840;10.762;2022-10-29T04:28:50;14.40;99.90
8557;DHT22;4316;53.840;10.762;2022-10-29T04:31:17;14.30;99.90
8557;DHT22;4316;53.840;10.762;2022-10-29T04:33:43;14.30;99.90
8557;DHT22;4316;53.840;10.762;2022-10-29T04:36:10;14.30;99.90
8557;DHT22;4316;53.840;10.762;2022-10-29T04:38:36;14.30;99.90
8557;DHT22;4316;53.840;10.762;2022-10-29T04:41:02;14.20;99.90
8557;DHT22;4316;53.840;10.762;2022-10-29T04:43:28;14.20;99.90
8557;DHT22;4316;53.840;10.762;2022-10-29T04:45:56;14.20;99.90
8557;DHT22;4316;53.840;10.762;2022-10-29T04:48:24;14.20;99.90
8557;DHT22;4316;53.840;10.762;2022-10-29T04:50:50;14.10;99.90
8557;DHT22;4316;53.840;10.762;2022-10-29T04:53:16;14.00;99.90
8557;DHT22;4316;53.840;10.762;2022-10-29T04:55:43;14.00;99.90
8557;DHT22;4316;53.840;10.762;2022-10-29T04:58:16;14.00;99.90
8557;DHT22;4316;53.840;10.762;2022-10-29T05:00:43;13.90;99.90
8557;DHT22;4316;53.840;10.762;2022-10-29T05:03:09;13.80;99.90
8557;DHT22;4316;53.840;10.762;2022-10-29T05:05:36;13.70;99.90
8557;DHT22;4316;53.840;10.762;2022-10-29T05:08:04;13.70;99.90
8557;DHT22;4316;53.840;10.762;2022-10-29T05:10:32;13.70;99.90
8557;DHT22;4316;53.840;10.762;2022-10-29T05:13:05;13.70;99.90
8557;DHT22;4316;53.840;10.762;2022-10-29T05:15:32;13.70;99.90
8557;DHT22;4316;53.840;10.762;2022-10-29T05:17:58;13.60;99.90
8557;DHT22;4316;53.840;10.762;2022-10-29T05:20:24;13.60;99.90
8557;DHT22;4316;53.840;10.762;2022-10-29T05:22:58;13.60;99.90
8557;DHT22;4316;53.840;10.762;2022-10-29T05:25:24;13.60;99.90
8557;DHT22;4316;53.840;10.762;2022-10-29T05:28:08;13.50;99.90
8557;DHT22;4316;53.840;10.762;2022-10-29T05:30:35;13.50;99.90
8557;DHT22;4316;53.840;10.762;2022-10-29T05:33:08;13.40;99.90
8557;DHT22;4316;53.840;10.762;2022-10-29T05:35:34;13.40;99.90
8557;DHT22;4316;53.840;10.762;2022-10-29T05:38:00;13.30;99.90
8557;DHT22;4316;53.840;10.762;2022-10-29T05:40:27;13.40;99.90
8557;DHT22;4316;53.840;10.762;2022-10-29T05:42:53;13.40;99.90
8557;DHT22;4316;53.840;10.762;2022-10-29T05:45:19;13.40;99.90
8557;DHT22;4316;53.840;10.762;2022-10-29T05:47:44;13.30;99.90
8557;DHT22;4316;53.840;10.762;2022-10-29T05:50:11;13.30;99.90
8557;DHT22;4316;53.840;10.762;2022-10-29T05:52:37;13.30;99.90
8557;DHT22;4316;53.840;10.762;2022-10-29T05:55:08;13.40;99.90
8557;DHT22;4316;53.840;10.762;2022-10-29T05:57:34;13.40;99.90
8557;DHT22;4316;53.840;10.762;2022-10-29T06:00:00;13.30;99.90
8557;DHT22;4316;53.840;10.762;2022-10-29T06:02:25;13.30;99.90
8557;DHT22;4316;53.840;10.762;2022-10-29T06:04:51;13.20;99.90
8557;DHT22;4316;53.840;10.762;2022-10-29T06:07:17;13.20;99.90
8557;DHT22;4316;53.840;10.762;2022-10-29T06:09:42;13.10;99.90
8557;DHT22;4316;53.840;10.762;2022-10-29T06:12:08;13.10;99.90
8557;DHT22;4316;53.840;10.762;2022-10-29T06:14:34;13.10;99.90
8557;DHT22;4316;53.840;10.762;2022-10-29T06:17:00;13.10;99.90
8557;DHT22;4316;53.840;10.762;2022-10-29T06:19:26;13.10;99.90
8557;DHT22;4316;53.840;10.762;2022-10-29T06:21:53;13.00;99.90
8557;DHT22;4316;53.840;10.762;2022-10-29T06:24:19;13.00;99.90
8557;DHT22;4316;53.840;10.762;2022-10-29T06:26:45;13.00;99.90
8557;DHT22;4316;53.840;10.762;2022-10-29T06:29:10;12.90;99.90
8557;DHT22;4316;53.840;10.762;2022-10-29T06:31:36;12.90;99.90
8557;DHT22;4316;53.840;10.762;2022-10-29T06:34:02;12.80;99.90
8557;DHT22;4316;53.840;10.762;2022-10-29T06:36:27;12.90;99.90
8557;DHT22;4316;53.840;10.762;2022-10-29T06:38:53;12.90;99.90
8557;DHT22;4316;53.840;10.762;2022-10-29T06:41:19;12.90;99.90
8557;DHT22;4316;53.840;10.762;2022-10-29T06:43:49;12.90;99.90
8557;DHT22;4316;53.840;10.762;2022-10-29T06:46:15;12.90;99.90
8557;DHT22;4316;53.840;10.762;2022-10-29T06:48:41;12.80;99.90
8557;DHT22;4316;53.840;10.762;2022-10-29T06:51:07;12.90;99.90
8557;DHT22;4316;53.840;10.762;2022-10-29T06:53:32;12.80;99.90
8557;DHT22;4316;53.840;10.762;2022-10-29T06:55:59;12.90;99.90
8557;DHT22;4316;53.840;10.762;2022-10-29T06:58:25;12.80;99.90
8557;DHT22;4316;53.840;10.762;2022-10-29T07:00:50;12.80;99.90
8557;DHT22;4316;53.840;10.762;2022-10-29T07:03:18;12.90;99.90
8557;DHT22;4316;53.840;10.762;2022-10-29T07:05:45;12.90;99.90
8557;DHT22;4316;53.840;10.762;2022-10-29T07:08:11;12.90;99.90
8557;DHT22;4316;53.840;10.762;2022-10-29T07:10:37;13.00;99.90
8557;DHT22;4316;53.840;10.762;2022-10-29T07:13:03;13.00;99.90
8557;DHT22;4316;53.840;10.762;2022-10-29T07:15:29;13.00;99.90
8557;DHT22;4316;53.840;10.762;2022-10-29T07:18:03;13.00;99.90
8557;DHT22;4316;53.840;10.762;2022-10-29T07:20:31;13.10;99.90
8557;DHT22;4316;53.840;10.762;2022-10-29T07:22:57;13.10;99.90
8557;DHT22;4316;53.840;10.762;2022-10-29T07:25:25;13.10;99.90
8557;DHT22;4316;53.840;10.762;2022-10-29T07:27:50;13.10;99.90
8557;DHT22;4316;53.840;10.762;2022-10-29T07:30:17;13.20;99.90
8557;DHT22;4316;53.840;10.762;2022-10-29T07:32:42;13.20;99.90
8557;DHT22;4316;53.840;10.762;2022-10-29T07:35:08;13.30;99.90
8557;DHT22;4316;53.840;10.762;2022-10-29T07:37:34;13.30;99.90
8557;DHT22;4316;53.840;10.762;2022-10-29T07:39:59;13.30;99.90
8557;DHT22;4316;53.840;10.762;2022-10-29T07:42:25;13.40;99.90
8557;DHT22;4316;53.840;10.762;2022-10-29T07:44:51;13.50;99.90
8557;DHT22;4316;53.840;10.762;2022-10-29T07:47:17;13.60;99.90
8557;DHT22;4316;53.840;10.762;2022-10-29T07:49:43;13.70;99.90
8557;DHT22;4316;53.840;10.762;2022-10-29T07:52:09;13.70;99.90
8557;DHT22;4316;53.840;10.762;2022-10-29T07:54:35;13.80;99.90
8557;DHT22;4316;53.840;10.762;2022-10-29T07:57:01;13.80;99.90
8557;DHT22;4316;53.840;10.762;2022-10-29T07:59:26;13.80;99.90
8557;DHT22;4316;53.840;10.762;2022-10-29T08:01:52;13.80;99.90
8557;DHT22;4316;53.840;10.762;2022-10-29T08:04:18;13.80;99.90
8557;DHT22;4316;53.840;10.762;2022-10-29T08:06:44;13.80;99.90
8557;DHT22;4316;53.840;10.762;2022-10-29T08:09:10;13.90;99.90
8557;DHT22;4316;53.840;10.762;2022-10-29T08:11:36;14.00;99.90
8557;DHT22;4316;53.840;10.762;2022-10-29T08:14:03;14.00;99.90
8557;DHT22;4316;53.840;10.762;2022-10-29T08:16:29;14.00;99.90
8557;DHT22;4316;53.840;10.762;2022-10-29T08:18:55;14.10;99.90
8557;DHT22;4316;53.840;10.762;2022-10-29T08:21:21;14.10;99.90
8557;DHT22;4316;53.840;10.762;2022-10-29T08:23:47;14.20;99.90
8557;DHT22;4316;53.840;10.762;2022-10-29T08:26:12;14.20;99.90
8557;DHT22;4316;53.840;10.762;2022-10-29T08:28:38;14.20;99.90
8557;DHT22;4316;53.840;10.762;2022-10-29T08:31:04;14.20;99.90
8557;DHT22;4316;53.840;10.762;2022-10-29T08:33:30;14.30;99.90
8557;DHT22;4316;53.840;10.762;2022-10-29T08:35:55;14.40;99.90
8557;DHT22;4316;53.840;10.762;2022-10-29T08:38:21;14.50;99.90
8557;DHT22;4316;53.840;10.762;2022-10-29T08:46:55;15.00;99.90
8557;DHT22;4316;53.840;10.762;2022-10-29T08:49:50;15.00;99.90
8557;DHT22;4316;53.840;10.762;2022-10-29T08:52:19;15.00;99.90
8557;DHT22;4316;53.840;10.762;2022-10-29T08:55:06;15.00;99.90
8557;DHT22;4316;53.840;10.762;2022-10-29T08:57:42;15.10;99.90
8557;DHT22;4316;53.840;10.762;2022-10-29T09:00:22;15.10;99.90
8557;DHT22;4316;53.840;10.762;2022-10-29T09:02:57;15.20;99.90
8557;DHT22;4316;53.840;10.762;2022-10-29T09:05:31;15.20;99.90
8557;DHT22;4316;53.840;10.762;2022-10-29T09:19:15;16.50;99.90
8557;DHT22;4316;53.840;10.762;2022-10-29T09:30:28;17.20;99.90
8557;DHT22;4316;53.840;10.762;2022-10-29T09:33:14;17.20;99.90
8557;DHT22;4316;53.840;10.762;2022-10-29T09:35:47;17.20;99.90
8557;DHT22;4316;53.840;10.762;2022-10-29T09:38:22;17.40;99.90
8557;DHT22;4316;53.840;10.762;2022-10-29T09:40:50;17.50;99.90
8557;DHT22;4316;53.840;10.762;2022-10-29T09:52:12;17.60;99.90
8557;DHT22;4316;53.840;10.762;2022-10-29T09:54:39;17.40;99.90
8557;DHT22;4316;53.840;10.762;2022-10-29T09:57:06;17.40;99.90
8557;DHT22;4316;53.840;10.762;2022-10-29T10:02:01;17.50;99.90
8557;DHT22;4316;53.840;10.762;2022-10-29T10:04:33;17.70;99.90
8557;DHT22;4316;53.840;10.762;2022-10-29T10:09:51;18.10;99.90
8557;DHT22;4316;53.840;10.762;2022-10-29T10:12:22;18.30;99.90
8557;DHT22;4316;53.840;10.762;2022-10-29T10:14:48;19.00;99.90
8557;DHT22;4316;53.840;10.762;2022-10-29T10:17:13;20.10;99.90
8557;DHT22;4316;53.840;10.762;2022-10-29T10:19:44;20.60;99.90
8557;DHT22;4316;53.840;10.762;2022-10-29T10:22:21;20.60;99.90
8557;DHT22;4316;53.840;10.762;2022-10-29T10:24:48;20.20;99.90
8557;DHT22;4316;53.840;10.762;2022-10-29T10:32:28;19.20;99.90
8557;DHT22;4316;53.840;10.762;2022-10-29T10:34:54;18.90;99.90
8557;DHT22;4316;53.840;10.762;2022-10-29T10:37:20;18.70;99.90
8557;DHT22;4316;53.840;10.762;2022-10-29T10:39:59;18.70;99.90
8557;DHT22;4316;53.840;10.762;2022-10-29T10:42:31;18.60;99.90
8557;DHT22;4316;53.840;10.762;2022-10-29T10:45:16;18.70;99.90
8557;DHT22;4316;53.840;10.762;2022-10-29T10:47:52;18.70;99.90
8557;DHT22;4316;53.840;10.762;2022-10-29T10:50:27;18.70;99.90
8557;DHT22;4316;53.840;10.762;2022-10-29T10:52:56;18.70;99.90
8557;DHT22;4316;53.840;10.762;2022-10-29T10:55:31;18.90;99.90
8557;DHT22;4316;53.840;10.762;2022-10-29T10:58:10;19.10;99.90
8557;DHT22;4316;53.840;10.762;2022-10-29T11:00:48;19.20;99.90
8557;DHT22;4316;53.840;10.762;2022-10-29T11:03:19;19.20;99.90
8557;DHT22;4316;53.840;10.762;2022-10-29T11:05:54;18.90;99.90
8557;DHT22;4316;53.840;10.762;2022-10-29T11:13:43;19.00;99.90
8557;DHT22;4316;53.840;10.762;2022-10-29T11:24:11;18.80;99.90
8557;DHT22;4316;53.840;10.762;2022-10-29T11:26:43;18.80;99.90
8557;DHT22;4316;53.840;10.762;2022-10-29T11:32:13;18.50;99.90
8557;DHT22;4316;53.840;10.762;2022-10-29T11:37:36;18.30;99.90
8557;DHT22;4316;53.840;10.762;2022-10-29T11:40:26;18.30;99.90
8557;DHT22;4316;53.840;10.762;2022-10-29T11:42:54;18.30;99.90
8557;DHT22;4316;53.840;10.762;2022-10-29T11:51:34;18.70;99.90
8557;DHT22;4316;53.840;10.762;2022-10-29T12:05:39;18.60;99.90
8557;DHT22;4316;53.840;10.762;2022-10-29T12:11:08;18.40;99.90
8557;DHT22;4316;53.840;10.762;2022-10-29T12:24:44;18.00;99.90
8557;DHT22;4316;53.840;10.762;2022-10-29T12:30:02;18.10;99.90
8557;DHT22;4316;53.840;10.762;2022-10-29T12:35:21;18.00;99.90
8557;DHT22;4316;53.840;10.762;2022-10-29T12:40:37;17.80;99.90
8557;DHT22;4316;53.840;10.762;2022-10-29T12:43:21;17.70;99.90
8557;DHT22;4316;53.840;10.762;2022-10-29T12:45:57;17.70;99.90
8557;DHT22;4316;53.840;10.762;2022-10-29T12:48:36;17.70;99.90
8557;DHT22;4316;53.840;10.762;2022-10-29T12:51:31;17.70;99.90
8557;DHT22;4316;53.840;10.762;2022-10-29T12:56:18;17.70;99.90
8557;DHT22;4316;53.840;10.762;2022-10-29T13:09:15;17.50;99.90
8557;DHT22;4316;53.840;10.762;2022-10-29T13:11:49;17.60;99.90
8557;DHT22;4316;53.840;10.762;2022-10-29T13:14:26;17.60;99.90
8557;DHT22;4316;53.840;10.762;2022-10-29T13:16:55;17.50;99.90
8557;DHT22;4316;53.840;10.762;2022-10-29T13:19:43;17.30;99.90
8557;DHT22;4316;53.840;10.762;2022-10-29T13:24:42;17.40;99.90
8557;DHT22;4316;53.840;10.762;2022-10-29T13:29:48;17.30;99.90
8557;DHT22;4316;53.840;10.762;2022-10-29T13:32:37;17.20;99.90
8557;DHT22;4316;53.840;10.762;2022-10-29T13:43:02;16.90;99.90
8557;DHT22;4316;53.840;10.762;2022-10-29T13:45:30;16.80;99.90
8557;DHT22;4316;53.840;10.762;2022-10-29T13:48:05;16.80;99.90
8557;DHT22;4316;53.840;10.762;2022-10-29T13:50:36;16.80;99.90
8557;DHT22;4316;53.840;10.762;2022-10-29T13:53:05;16.80;99.90
8557;DHT22;4316;53.840;10.762;2022-10-29T13:55:35;16.70;99.90
8557;DHT22;4316;53.840;10.762;2022-10-29T14:00:35;16.80;99.90
8557;DHT22;4316;53.840;10.762;2022-10-29T14:03:16;16.90;99.90
8557;DHT22;4316;53.840;10.762;2022-10-29T14:05:54;17.00;99.90
8557;DHT22;4316;53.840;10.762;2022-10-29T14:08:43;17.10;99.90
8557;DHT22;4316;53.840;10.762;2022-10-29T14:13:51;17.10;99.90
8557;DHT22;4316;53.840;10.762;2022-10-29T14:16:27;17.10;99.90
8557;DHT22;4316;53.840;10.762;2022-10-29T14:18:53;17.00;99.90
8557;DHT22;4316;53.840;10.762;2022-10-29T14:21:28;17.00;99.90
8557;DHT22;4316;53.840;10.762;2022-10-29T14:23:58;17.00;99.90
8557;DHT22;4316;53.840;10.762;2022-10-29T14:26:30;17.10;99.90
8557;DHT22;4316;53.840;10.762;2022-10-29T14:29:24;17.00;99.90
8557;DHT22;4316;53.840;10.762;2022-10-29T14:32:13;17.00;99.90
8557;DHT22;4316;53.840;10.762;2022-10-29T14:34:41;16.90;99.90
8557;DHT22;4316;53.840;10.762;2022-10-29T14:37:13;16.90;99.90
8557;DHT22;4316;53.840;10.762;2022-10-29T14:39:47;16.80;99.90
8557;DHT22;4316;53.840;10.762;2022-10-29T14:42:36;16.70;99.90
8557;DHT22;4316;53.840;10.762;2022-10-29T14:45:29;16.70;99.90
8557;DHT22;4316;53.840;10.762;2022-10-29T14:48:01;16.70;99.90
8557;DHT22;4316;53.840;10.762;2022-10-29T14:50:34;16.80;99.90
8557;DHT22;4316;53.840;10.762;2022-10-29T14:53:02;16.90;99.90
8557;DHT22;4316;53.840;10.762;2022-10-29T14:55:32;16.90;99.90
8557;DHT22;4316;53.840;10.762;2022-10-29T14:58:28;16.90;99.90
8557;DHT22;4316;53.840;10.762;2022-10-29T15:01:02;16.80;99.90
8557;DHT22;4316;53.840;10.762;2022-10-29T15:03:31;16.70;99.90
8557;DHT22;4316;53.840;10.762;2022-10-29T15:06:18;16.70;99.90
8557;DHT22;4316;53.840;10.762;2022-10-29T15:08:53;16.70;99.90
8557;DHT22;4316;53.840;10.762;2022-10-29T15:11:35;16.70;99.90
8557;DHT22;4316;53.840;10.762;2022-10-29T15:14:03;16.60;99.90
8557;DHT22;4316;53.840;10.762;2022-10-29T15:16:29;16.60;99.90
8557;DHT22;4316;53.840;10.762;2022-10-29T15:18:56;16.60;99.90
8557;DHT22;4316;53.840;10.762;2022-10-29T15:21:25;16.60;99.90
8557;DHT22;4316;53.840;10.762;2022-10-29T15:23:57;16.60;99.90
8557;DHT22;4316;53.840;10.762;2022-10-29T15:26:24;16.50;99.90
8557;DHT22;4316;53.840;10.762;2022-10-29T15:28:54;16.50;99.90
8557;DHT22;4316;53.840;10.762;2022-10-29T15:32:05;16.50;99.90
8557;DHT22;4316;53.840;10.762;2022-10-29T15:36:50;16.50;99.90
8557;DHT22;4316;53.840;10.762;2022-10-29T15:39:27;16.40;99.90
8557;DHT22;4316;53.840;10.762;2022-10-29T15:41:58;16.40;99.90
8557;DHT22;4316;53.840;10.762;2022-10-29T15:47:00;16.40;99.90
8557;DHT22;4316;53.840;10.762;2022-10-29T15:49:26;16.30;99.90
8557;DHT22;4316;53.840;10.762;2022-10-29T15:51:54;16.30;99.90
8557;DHT22;4316;53.840;10.762;2022-10-29T15:54:20;16.30;99.90
8557;DHT22;4316;53.840;10.762;2022-10-29T15:56:47;16.20;99.90
8557;DHT22;4316;53.840;10.762;2022-10-29T15:59:21;16.20;99.90
8557;DHT22;4316;53.840;10.762;2022-10-29T16:01:47;16.20;99.90
8557;DHT22;4316;53.840;10.762;2022-10-29T16:04:13;16.20;99.90
8557;DHT22;4316;53.840;10.762;2022-10-29T16:06:39;16.20;99.90
8557;DHT22;4316;53.840;10.762;2022-10-29T16:09:04;16.20;99.90
8557;DHT22;4316;53.840;10.762;2022-10-29T16:11:33;16.20;99.90
8557;DHT22;4316;53.840;10.762;2022-10-29T16:13:59;16.20;99.90
8557;DHT22;4316;53.840;10.762;2022-10-29T16:16:25;16.10;99.90
8557;DHT22;4316;53.840;10.762;2022-10-29T16:18:54;16.10;99.90
8557;DHT22;4316;53.840;10.762;2022-10-29T16:21:22;16.10;99.90
8557;DHT22;4316;53.840;10.762;2022-10-29T16:23:48;16.10;99.90
8557;DHT22;4316;53.840;10.762;2022-10-29T16:26:15;16.00;99.90
8557;DHT22;4316;53.840;10.762;2022-10-29T16:28:41;16.00;99.90
8557;DHT22;4316;53.840;10.762;2022-10-29T16:31:27;16.00;99.90
8557;DHT22;4316;53.840;10.762;2022-10-29T16:33:58;16.00;99.90
8557;DHT22;4316;53.840;10.762;2022-10-29T16:36:24;16.00;99.90
8557;DHT22;4316;53.840;10.762;2022-10-29T16:38:50;16.00;99.90
8557;DHT22;4316;53.840;10.762;2022-10-29T16:41:17;15.90;99.90
8557;DHT22;4316;53.840;10.762;2022-10-29T16:43:44;15.90;99.90
8557;DHT22;4316;53.840;10.762;2022-10-29T16:46:11;15.90;99.90
8557;DHT22;4316;53.840;10.762;2022-10-29T16:48:37;15.90;99.90
8557;DHT22;4316;53.840;10.762;2022-10-29T16:51:06;15.90;99.90
8557;DHT22;4316;53.840;10.762;2022-10-29T16:53:32;15.80;99.90
8557;DHT22;4316;53.840;10.762;2022-10-29T16:55:58;15.90;99.90
8557;DHT22;4316;53.840;10.762;2022-10-29T16:58:24;15.80;99.90
8557;DHT22;4316;53.840;10.762;2022-10-29T17:00:50;15.80;99.90
8557;DHT22;4316;53.840;10.762;2022-10-29T17:03:16;15.80;99.90
8557;DHT22;4316;53.840;10.762;2022-10-29T17:05:44;15.80;99.90
8557;DHT22;4316;53.840;10.762;2022-10-29T17:08:10;15.80;99.90
8557;DHT22;4316;53.840;10.762;2022-10-29T17:10:37;15.80;99.90
8557;DHT22;4316;53.840;10.762;2022-10-29T17:13:03;15.80;99.90
8557;DHT22;4316;53.840;10.762;2022-10-29T17:15:29;15.80;99.90
8557;DHT22;4316;53.840;10.762;2022-10-29T17:17:55;15.80;99.90
8557;DHT22;4316;53.840;10.762;2022-10-29T17:20:24;15.70;99.90
8557;DHT22;4316;53.840;10.762;2022-10-29T17:22:51;15.70;99.90
8557;DHT22;4316;53.840;10.762;2022-10-29T17:25:17;15.70;99.90
8557;DHT22;4316;53.840;10.762;2022-10-29T17:27:43;15.70;99.90
8557;DHT22;4316;53.840;10.762;2022-10-29T17:30:09;15.70;99.90
8557;DHT22;4316;53.840;10.762;2022-10-29T17:32:35;15.60;99.90
8557;DHT22;4316;53.840;10.762;2022-10-29T17:35:01;15.60;99.90
8557;DHT22;4316;53.840;10.762;2022-10-29T17:37:27;15.60;99.90
8557;DHT22;4316;53.840;10.762;2022-10-29T17:39:53;15.60;99.90
8557;DHT22;4316;53.840;10.762;2022-10-29T17:42:19;15.70;99.90
8557;DHT22;4316;53.840;10.762;2022-10-29T17:44:45;15.50;99.90
8557;DHT22;4316;53.840;10.762;2022-10-29T17:47:10;15.50;99.90
8557;DHT22;4316;53.840;10.762;2022-10-29T17:49:37;15.50;99.90
8557;DHT22;4316;53.840;10.762;2022-10-29T17:52:03;15.50;99.90
8557;DHT22;4316;53.840;10.762;2022-10-29T17:54:30;15.40;99.90
8557;DHT22;4316;53.840;10.762;2022-10-29T17:56:55;15.30;99.90
8557;DHT22;4316;53.840;10.762;2022-10-29T17:59:21;15.40;99.90
8557;DHT22;4316;53.840;10.762;2022-10-29T18:01:47;15.40;99.90
8557;DHT22;4316;53.840;10.762;2022-10-29T18:04:13;15.30;99.90
8557;DHT22;4316;53.840;10.762;2022-10-29T18:06:39;15.30;99.90
8557;DHT22;4316;53.840;10.762;2022-10-29T18:09:05;15.20;99.90
8557;DHT22;4316;53.840;10.762;2022-10-29T18:11:30;15.20;99.90
8557;DHT22;4316;53.840;10.762;2022-10-29T18:13:56;15.10;99.90
8557;DHT22;4316;53.840;10.762;2022-10-29T18:16:25;15.20;99.90
8557;DHT22;4316;53.840;10.762;2022-10-29T18:18:52;15.20;99.90
8557;DHT22;4316;53.840;10.762;2022-10-29T18:21:19;15.20;99.90
8557;DHT22;4316;53.840;10.762;2022-10-29T18:23:46;15.20;99.90
8557;DHT22;4316;53.840;10.762;2022-10-29T18:26:25;15.20;99.90
8557;DHT22;4316;53.840;10.762;2022-10-29T18:28:52;15.20;99.90
8557;DHT22;4316;53.840;10.762;2022-10-29T18:31:19;15.10;99.90
8557;DHT22;4316;53.840;10.762;2022-10-29T18:33:46;15.10;99.90
8557;DHT22;4316;53.840;10.762;2022-10-29T18:36:12;15.10;99.90
8557;DHT22;4316;53.840;10.762;2022-10-29T18:38:38;15.10;99.90
8557;DHT22;4316;53.840;10.762;2022-10-29T18:41:05;15.20;99.90
8557;DHT22;4316;53.840;10.762;2022-10-29T18:43:31;15.20;99.90
8557;DHT22;4316;53.840;10.762;2022-10-29T18:45:59;15.20;99.90
8557;DHT22;4316;53.840;10.762;2022-10-29T18:48:26;15.20;99.90
8557;DHT22;4316;53.840;10.762;2022-10-29T18:50:52;15.10;99.90